Main page
METAR-TAF:

METAR-TAF

Airports :

Inverness Airport

Inverness, Scotland

latitude: 57-32N, longitude: 004-03W, elevation: 9 m

Current weather observation

The report was made 18 minutes ago, at 20:20 UTC
Wind 11 kt from the West
Temperature 13°C
Humidity 67%
Pressure 1029 hPa
Visibility 10 km or more
Few clouds at a height of 3800 ft

METAR: EGPE 222020Z 28011KT 9999 FEW038 13/07 Q1029

Time: 21:38 (20:38 UTC)

Forecast

The report was made 38 minutes ago, at 20:00 UTC
Forecast valid from 22 at 21 UTC to 23 at 06 UTC
Wind 11 kt from the West/Southwest
Visibility 10 km or more
Few clouds at a height of 3500 ft

TAF: EGPE 222000Z 2221/2306 25011KT 9999 FEW035

Weather observations and forecasts of more than 4000 airports (METAR and TAF reports).

The available stations are represented by yellow and red dots on the map.

Hover mouse over dot to see the name of the station.

Then click to see weather observations and forecasts.

To change the map : click on the green buttons with a black cross to zoom in, on the green button with a dash to zoom out, or on the green arrows for adjacent maps.


METAR-TAF: